Saltar para o conteúdo principal

Braga, Merelim

ID 1210622 · 41.5668, -8.4500 mapa

Última leitura · 2026-05-09 18:00 (Europe/Lisbon)

Temperatura
15.6 °C
Humidade
84 %
Pressão
1,005.3 hPa
Precipitação
0.1 mm
Radiação
530 W/m²
Velocidade do vento
9.7 km/h
Direcção do vento
SE · Sudeste

Histórico de 24 horas

Hora (Europe/Lisbon) Temperatura Humidade Pressão Chuva Vento Direcção
2026-05-09 18:00 15.6 °C 84 % 1,005.3 0.1 mm 9.7 km/h SE
2026-05-09 17:00 14.9 °C 88 % 1,005.4 0.0 mm 6.8 km/h NE
2026-05-09 16:00 13.8 °C 86 % 1,005.0 0.8 mm 7.6 km/h SE
2026-05-09 15:00 17.8 °C 76 % 1,003.8 0.9 mm 14.0 km/h S
2026-05-09 14:00 17.6 °C 77 % 1,004.2 0.0 mm 15.1 km/h SE
2026-05-09 13:00 14.3 °C 95 % 1,004.8 1.8 mm 2.9 km/h S
2026-05-09 12:00 15.3 °C 82 % 1,004.7 1.9 mm 8.6 km/h W
2026-05-09 11:00 17.4 °C 65 % 1,004.1 0.1 mm 18.4 km/h SE
2026-05-09 10:00 16.3 °C 79 % 1,004.2 0.0 mm 18.0 km/h E
2026-05-09 09:00 14.3 °C 93 % 1,004.6 0.0 mm 3.2 km/h W
2026-05-09 08:00 11.6 °C 100 % 1,004.7 0.0 mm 3.2 km/h N
2026-05-09 07:00 10.0 °C 99 % 1,004.8 0.0 mm 4.0 km/h NW
2026-05-09 06:00 10.6 °C 98 % 1,004.9 0.0 mm 1.1 km/h SE
2026-05-09 05:00 11.8 °C 96 % 1,005.2 0.0 mm 4.3 km/h NW
2026-05-09 04:00 12.8 °C 92 % 1,005.5 0.0 mm 4.3 km/h SE
2026-05-09 03:00 13.1 °C 89 % 1,005.7 0.2 mm 6.1 km/h SE
2026-05-09 02:00 13.9 °C 80 % 1,006.4 0.6 mm 5.4 km/h S
2026-05-09 01:00 14.1 °C 75 % 1,005.9 0.0 mm 2.9 km/h W
2026-05-09 00:00 14.0 °C 73 % 1,006.3 0.0 mm 4.7 km/h N
2026-05-08 23:00 13.6 °C 76 % 1,007.0 0.0 mm 3.6 km/h NW
2026-05-08 22:00 14.6 °C 73 % 1,007.3 0.0 mm 6.1 km/h NE
2026-05-08 21:00 15.7 °C 70 % 1,007.4 0.0 mm 5.4 km/h NE
2026-05-08 20:00 17.5 °C 61 % 1,007.6 0.0 mm 6.1 km/h NE
2026-05-08 19:00 19.7 °C 47 % 1,007.7 0.0 mm 2.9 km/h E